SASTRN1 EFRO-EFRO

Flight info

Callsign SASTRN1
Flight time 0h 24m
Altitude 3000
Route EFRO EFRO
Aircraft B462/M-SDFGIRWY/LB1

Departure

Time 2026-04-28 07:20
Airport Rovaniemi Airport (EFRO)

Arrival

Time 2026-04-28 07:45
Airport Rovaniemi Airport (EFRO)
Time Latitude Longitude Altitude Speed Heading
2026-04-28 07:20 66.46998 25.83859 2972 ft 266 kts 122°
2026-04-28 07:20 66.45885 25.87620 2996 ft 267 kts 121°
2026-04-28 07:20 66.44815 25.91320 3001 ft 258 kts 120°
2026-04-28 07:21 66.43839 25.95001 2978 ft 246 kts 108°
2026-04-28 07:21 66.43589 25.98982 2984 ft 225 kts 73°
2026-04-28 07:21 66.44235 26.02287 3007 ft 207 kts 43°
2026-04-28 07:22 66.46281 26.07280 3040 ft 206 kts 39°
2026-04-28 07:22 66.47355 26.09745 3047 ft 218 kts 39°
2026-04-28 07:22 66.48138 26.11480 3039 ft 225 kts 38°
2026-04-28 07:22 66.49582 26.14612 3033 ft 233 kts 38°
2026-04-28 07:23 66.50828 26.17280 3031 ft 238 kts 37°
2026-04-28 07:23 66.52092 26.20000 3047 ft 241 kts 38°
2026-04-28 07:23 66.53375 26.22756 3054 ft 244 kts 38°
2026-04-28 07:23 66.54670 26.25521 3090 ft 246 kts 37°
2026-04-28 07:24 66.55980 26.28316 3067 ft 247 kts 37°
2026-04-28 07:24 66.57294 26.31123 3047 ft 248 kts 38°
2026-04-28 07:24 66.58597 26.33904 3061 ft 249 kts 37°
2026-04-28 07:24 66.59494 26.35795 3056 ft 249 kts 37°
2026-04-28 07:25 66.60819 26.38610 3050 ft 249 kts 37°
2026-04-28 07:25 66.62550 26.42368 3037 ft 244 kts 38°
2026-04-28 07:25 66.63412 26.44189 3043 ft 235 kts 37°
2026-04-28 07:25 66.64631 26.46788 3039 ft 225 kts 38°
2026-04-28 07:26 66.65784 26.49290 3037 ft 217 kts 37°
2026-04-28 07:26 66.66907 26.51750 3027 ft 210 kts 37°
2026-04-28 07:26 66.67996 26.54124 3038 ft 204 kts 37°
2026-04-28 07:26 66.69059 26.56449 3044 ft 200 kts 38°
2026-04-28 07:27 66.69805 26.59370 3055 ft 206 kts 72°
2026-04-28 07:27 66.69591 26.62990 3073 ft 220 kts 112°
2026-04-28 07:27 66.68486 26.65728 3061 ft 231 kts 150°
2026-04-28 07:27 66.66920 26.66513 3056 ft 233 kts 186°
2026-04-28 07:28 66.65416 26.65185 3082 ft 228 kts 212°
2026-04-28 07:28 66.64036 26.63216 3052 ft 227 kts 212°
2026-04-28 07:28 66.62676 26.61231 3046 ft 225 kts 213°
2026-04-28 07:28 66.61343 26.59191 3048 ft 223 kts 215°
2026-04-28 07:29 66.60027 26.57148 3045 ft 222 kts 215°
2026-04-28 07:29 66.58716 26.55122 3036 ft 221 kts 215°
2026-04-28 07:29 66.57416 26.53096 3038 ft 219 kts 215°
2026-04-28 07:29 66.56123 26.51071 3041 ft 217 kts 215°
2026-04-28 07:30 66.54878 26.49076 3055 ft 208 kts 217°
2026-04-28 07:30 66.53693 26.47085 3025 ft 201 kts 218°
2026-04-28 07:30 66.52546 26.45162 3000 ft 195 kts 218°
2026-04-28 07:30 66.51451 26.43319 2996 ft 188 kts 218°
2026-04-28 07:31 66.50380 26.41520 3013 ft 182 kts 217°
2026-04-28 07:31 66.49345 26.39779 2997 ft 176 kts 218°
2026-04-28 07:31 66.48349 26.38063 2989 ft 173 kts 218°
2026-04-28 07:31 66.47448 26.36129 2954 ft 178 kts 244°
2026-04-28 07:32 66.47062 26.33127 3245 ft 180 kts 275°
2026-04-28 07:32 66.47203 26.30010 3288 ft 191 kts 299°
2026-04-28 07:32 66.47933 26.27435 3603 ft 184 kts 324°
2026-04-28 07:32 66.49178 26.25814 3034 ft 224 kts 351°
2026-04-28 07:33 66.50705 26.26026 3504 ft 217 kts 18°
2026-04-28 07:33 66.52181 26.27480 3121 ft 240 kts 21°
2026-04-28 07:33 66.53647 26.29161 2976 ft 234 kts 24°
2026-04-28 07:33 66.55041 26.31115 3029 ft 226 kts 29°
2026-04-28 07:34 66.56464 26.32476 3110 ft 217 kts
2026-04-28 07:34 66.57964 26.32713 3127 ft 215 kts 14°
2026-04-28 07:34 66.59200 26.34786 3146 ft 219 kts 44°
2026-04-28 07:34 66.60076 26.37937 3091 ft 225 kts 63°
2026-04-28 07:35 66.60192 26.41908 3088 ft 238 kts 98°
2026-04-28 07:35 66.59421 26.45646 3104 ft 246 kts 122°
2026-04-28 07:35 66.58090 26.48398 3090 ft 251 kts 153°
2026-04-28 07:35 66.56421 26.49151 3065 ft 248 kts 186°
2026-04-28 07:36 66.54830 26.47807 3085 ft 239 kts 212°
2026-04-28 07:36 66.53395 26.45770 3052 ft 234 kts 213°
2026-04-28 07:36 66.51997 26.43740 3043 ft 229 kts 214°
2026-04-28 07:36 66.50867 26.41115 3051 ft 216 kts 248°
2026-04-28 07:37 66.50599 26.37660 3066 ft 195 kts 288°
2026-04-28 07:37 66.51136 26.34735 3055 ft 181 kts 309°
2026-04-28 07:37 66.51809 26.32077 3058 ft 181 kts 309°
2026-04-28 07:37 66.52506 26.29414 3046 ft 183 kts 311°
2026-04-28 07:38 66.53379 26.27237 3055 ft 174 kts 343°
2026-04-28 07:38 66.54521 26.27334 3085 ft 173 kts 27°
2026-04-28 07:38 66.55479 26.29199 3093 ft 176 kts 35°
2026-04-28 07:38 66.56441 26.31141 3085 ft 179 kts 35°
2026-04-28 07:39 66.57414 26.33140 3082 ft 182 kts 34°
2026-04-28 07:39 66.58560 26.34234 3086 ft 180 kts 357°
2026-04-28 07:39 66.59681 26.32823 3111 ft 189 kts 320°
2026-04-28 07:39 66.60585 26.30373 3095 ft 192 kts 319°
2026-04-28 07:40 66.61492 26.27868 3099 ft 195 kts 317°
2026-04-28 07:40 66.62385 26.25282 3082 ft 196 kts 316°
2026-04-28 07:40 66.63276 26.22625 2898 ft 203 kts 315°
2026-04-28 07:40 66.64201 26.19863 2689 ft 209 kts 315°
2026-04-28 07:41 66.65151 26.17014 2514 ft 215 kts 315°
2026-04-28 07:41 66.66127 26.14123 2401 ft 215 kts 316°
2026-04-28 07:41 66.67088 26.11267 2447 ft 211 kts 315°
2026-04-28 07:41 66.67771 26.08048 2421 ft 219 kts 285°
2026-04-28 07:42 66.67533 26.04293 2404 ft 221 kts 247°
2026-04-28 07:42 66.66505 26.01463 2407 ft 217 kts 223°
2026-04-28 07:42 66.65369 25.99099 2421 ft 208 kts 224°
2026-04-28 07:42 66.64221 25.96950 2321 ft 205 kts 218°
2026-04-28 07:43 66.63024 25.94939 2121 ft 209 kts 217°
2026-04-28 07:43 66.61829 25.92994 1859 ft 198 kts 217°
2026-04-28 07:43 66.60717 25.91146 1537 ft 185 kts 221°
2026-04-28 07:43 66.59739 25.89258 1269 ft 168 kts 224°
2026-04-28 07:44 66.58868 25.87575 1038 ft 148 kts 214°
2026-04-28 07:44 66.58087 25.86106 792 ft 134 kts 221°
2026-04-28 07:44 66.57358 25.84720 622 ft 128 kts 222°
2026-04-28 07:44 66.56750 25.83331 620 ft 108 kts 230°
2026-04-28 07:45 66.57201 25.84428 602 ft 0 kts 218°
2026-04-28 07:45 66.57187 25.84400 605 ft 13 kts 218°
2026-04-28 07:45 66.56991 25.84012 605 ft 58 kts 217°
2026-04-28 07:45 66.56558 25.83196 619 ft 97 kts 217°
2026-04-28 07:46 66.55931 25.81975 608 ft 130 kts 217°
2026-04-28 07:46 66.55151 25.80489 739 ft 137 kts 221°
2026-04-28 07:46 66.54335 25.78958 715 ft 154 kts 219°
2026-04-28 07:46 66.53406 25.77325 810 ft 169 kts 218°
2026-04-28 07:47 66.52436 25.75656 1048 ft 175 kts 217°
2026-04-28 07:47 66.51391 25.73908 1221 ft 184 kts 216°
2026-04-28 07:47 66.50325 25.72025 1456 ft 190 kts 214°
2026-04-28 07:47 66.48998 25.71329 1658 ft 210 kts 170°
2026-04-28 07:48 66.47633 25.72882 1926 ft 225 kts 138°
2026-04-28 07:48 66.46329 25.75444 2165 ft 254 kts 137°
2026-04-28 07:48 66.44965 25.78298 2294 ft 255 kts 135°
2026-04-28 07:48 66.43624 25.81185 2472 ft 254 kts 134°
2026-04-28 07:49 66.42327 25.84160 2664 ft 252 kts 132°
2026-04-28 07:49 66.41073 25.87198 2850 ft 250 kts 127°
2026-04-28 07:49 66.40288 25.90905 2950 ft 238 kts 92°
2026-04-28 07:49 66.40308 25.93585 2989 ft 230 kts 69°
2026-04-28 07:50 66.41455 25.97857 3039 ft 224 kts 40°
2026-04-28 07:50 66.42593 26.00596 3051 ft 230 kts 40°
2026-04-28 07:50 66.43368 26.02431 3048 ft 233 kts 39°
2026-04-28 07:50 66.44993 26.06088 3030 ft 237 kts 38°
2026-04-28 07:51 66.46231 26.08775 3041 ft 240 kts 37°
2026-04-28 07:51 66.47504 26.11507 3030 ft 242 kts 37°
2026-04-28 07:51 66.48790 26.14268 3022 ft 244 kts 38°
2026-04-28 07:51 66.50083 26.17043 3019 ft 246 kts 37°
2026-04-28 07:52 66.51385 26.19823 3023 ft 247 kts 37°
2026-04-28 07:52 66.52612 26.22444 3017 ft 247 kts 37°
2026-04-28 07:52 66.53474 26.24291 3017 ft 247 kts 37°
2026-04-28 07:53 66.54759 26.27056 3032 ft 240 kts 37°
2026-04-28 07:53 66.56009 26.29751 3024 ft 234 kts 37°
2026-04-28 07:53 66.57216 26.32364 3023 ft 230 kts 37°
2026-04-28 07:53 66.58508 26.34603 3014 ft 223 kts 17°
2026-04-28 07:54 66.60003 26.34551 3026 ft 215 kts 339°
2026-04-28 07:54 66.61105 26.32186 3041 ft 208 kts 310°
2026-04-28 07:54 66.61854 26.29176 3003 ft 197 kts 308°
2026-04-28 07:54 66.62553 26.26271 2897 ft 191 kts 306°
2026-04-28 07:55 66.63181 26.23408 2824 ft 184 kts 305°
2026-04-28 07:55 66.63789 26.20532 2670 ft 189 kts 304°
2026-04-28 07:55 66.64401 26.17627 2653 ft 186 kts 304°
2026-04-28 07:55 66.64992 26.14761 2558 ft 189 kts 304°
2026-04-28 07:56 66.65613 26.11776 2419 ft 191 kts 304°
2026-04-28 07:56 66.66126 26.08698 2400 ft 195 kts 283°
2026-04-28 07:56 66.65929 26.05255 2415 ft 201 kts 261°
2026-04-28 07:56 66.65567 26.01878 2418 ft 198 kts 257°
2026-04-28 07:57 66.64791 25.99059 2413 ft 197 kts 228°
2026-04-28 07:57 66.63788 25.96801 2340 ft 191 kts 225°
2026-04-28 07:57 66.62739 25.94721 2106 ft 190 kts 220°
2026-04-28 07:57 66.61676 25.92816 1823 ft 185 kts 220°
2026-04-28 07:58 66.60669 25.90977 1520 ft 172 kts 221°
2026-04-28 07:58 66.59739 25.89247 1242 ft 161 kts 222°
2026-04-28 07:58 66.58862 25.87577 1022 ft 157 kts 225°
2026-04-28 07:58 66.57993 25.85960 784 ft 152 kts 221°
2026-04-28 07:59 66.57165 25.84383 616 ft 143 kts 225°
2026-04-28 07:59 66.56435 25.82909 620 ft 118 kts 216°
2026-04-28 07:59 66.55954 25.82031 610 ft 65 kts 218°
2026-04-28 07:59 66.55612 25.81384 607 ft 58 kts 217°
2026-04-28 08:00 66.55338 25.81272 616 ft 38 kts 107°
2026-04-28 08:00 66.55367 25.81454 614 ft 2 kts 304°
2026-04-28 08:00 66.55360 25.81422 614 ft 2 kts 228°
2026-04-28 08:00 66.55355 25.81410 617 ft 0 kts 228°
2026-04-28 08:01 66.55341 25.81358 614 ft 8 kts 246°
2026-04-28 08:01 66.55357 25.81180 617 ft 13 kts 307°
2026-04-28 08:01 66.55448 25.81077 616 ft 18 kts 11°
2026-04-28 08:01 66.55628 25.81415 607 ft 64 kts 37°
2026-04-28 08:02 66.56156 25.82393 616 ft 121 kts 39°
2026-04-28 08:02 66.56848 25.83816 1009 ft 134 kts 34°
2026-04-28 08:02 66.57482 25.85420 1868 ft 127 kts 40°
2026-04-28 08:02 66.58117 25.86962 2483 ft 129 kts 36°
2026-04-28 08:03 66.58841 25.88561 2831 ft 151 kts 35°
2026-04-28 08:03 66.59730 25.90401 2979 ft 182 kts 34°
2026-04-28 08:03 66.60831 25.92616 2991 ft 225 kts 35°
2026-04-28 08:03 66.62057 25.95176 2961 ft 228 kts 43°
2026-04-28 08:04 66.62760 25.98734 2972 ft 235 kts 77°
2026-04-28 08:04 66.62540 26.02779 3006 ft 244 kts 108°
2026-04-28 08:04 66.61575 26.06332 3019 ft 247 kts 124°
2026-04-28 08:04 66.60499 26.09685 3013 ft 246 kts 124°
2026-04-28 08:05 66.59412 26.13011 3005 ft 245 kts 123°
2026-04-28 08:05 66.58707 26.16711 3007 ft 228 kts 89°
2026-04-28 08:05 66.59019 26.20377 3030 ft 210 kts 50°
2026-04-28 08:05 66.60037 26.22862 3043 ft 203 kts 34°
2026-04-28 08:06 66.61145 26.25073 3080 ft 204 kts 34°
2026-04-28 08:06 66.62277 26.27241 3062 ft 204 kts 33°
2026-04-28 08:06 66.63438 26.29329 3064 ft 205 kts 32°
2026-04-28 08:06 66.64611 26.31358 3071 ft 205 kts 31°
2026-04-28 08:07 66.65790 26.33400 3066 ft 205 kts 31°
2026-04-28 08:07 66.66968 26.35449 3071 ft 206 kts 31°
2026-04-28 08:07 66.68229 26.37077 3075 ft 203 kts
2026-04-28 08:07 66.69577 26.36318 3097 ft 207 kts 328°
2026-04-28 08:08 66.70471 26.33489 3110 ft 213 kts 304°
2026-04-28 08:08 66.71166 26.30183 3122 ft 213 kts 303°
2026-04-28 08:08 66.71838 26.26847 3089 ft 211 kts 302°
2026-04-28 08:08 66.72442 26.23564 3037 ft 201 kts 301°
2026-04-28 08:09 66.72998 26.20412 3026 ft 191 kts 300°
2026-04-28 08:09 66.73575 26.17556 3085 ft 172 kts 317°
2026-04-28 08:09 66.74275 26.15297 3088 ft 164 kts 294°
2026-04-28 08:09 66.74137 26.12450 3051 ft 175 kts 242°
2026-04-28 08:10 66.73196 26.10610 3075 ft 169 kts 209°
2026-04-28 08:10 66.72170 26.09284 3049 ft 163 kts 210°
2026-04-28 08:10 66.71168 26.08044 3020 ft 158 kts 208°
2026-04-28 08:10 66.70198 26.06844 3000 ft 152 kts 211°
2026-04-28 08:11 66.69245 26.05634 3040 ft 164 kts 211°
2026-04-28 08:11 66.68119 26.04189 2800 ft 194 kts 210°
2026-04-28 08:11 66.66918 26.02598 2514 ft 196 kts 213°
2026-04-28 08:11 66.65806 26.00849 2527 ft 182 kts 220°
2026-04-28 08:12 66.64807 25.99023 2563 ft 174 kts 222°
2026-04-28 08:12 66.63846 25.97111 2352 ft 179 kts 224°
2026-04-28 08:12 66.62874 25.95170 2098 ft 176 kts 223°
2026-04-28 08:12 66.61915 25.93330 1833 ft 171 kts 221°
2026-04-28 08:13 66.60963 25.91569 1573 ft 168 kts 222°
2026-04-28 08:13 66.60049 25.89818 1321 ft 163 kts 224°
2026-04-28 08:13 66.59151 25.88114 1081 ft 161 kts 223°
2026-04-28 08:13 66.58264 25.86414 864 ft 160 kts 223°
2026-04-28 08:14 66.57377 25.84752 628 ft 158 kts 219°
2026-04-28 08:14 66.56575 25.83266 622 ft 130 kts 225°
2026-04-28 08:14 66.56066 25.82063 609 ft 70 kts 235°
2026-04-28 08:14 66.55854 25.81550 600 ft 22 kts 195°
2026-04-28 08:15 66.55739 25.81519 602 ft 13 kts 161°